Aérodrome :
LOGIN :

S'inscrire | Disclaimer

   EN    FR    IT 

 










Légende :    VFR   VFR Marginal   IFR   IFR Intensif   IFR Très Intensif
Visi : 
Plafond : 
>= 8 km
>= 3000ft
5 à 8 km
1000 à 3000 ft
1500m à 5 km
500 à 1000 ft
800 à 1500m
200 à 500 ft
< 800m
< 200 ft
Symboles :   Orages  Brouillard  Fortes neiges  Fortes précipitations  Vent > 20 kt
SIGMETs :   Divers  Orages  Givrage  Turbulence  Onde Orograph.  Cendres Volcan.







- Altitude de l'aérodrome : 204 ft
- Code IATA : AGF
- Voir les cartes d'approche


LFBA - Agen

DERNIER METAR :
  • 280800Z AUTO VRB02KT 9999 // NSC 08/03 Q1021

METARs EXPIRÉS :
  • 280730Z AUTO VRB01KT 9999 // NSC 07/03 Q1021
  • 280700Z AUTO 00000KT 9999 // NSC 06/02 Q1021
  • 280630Z AUTO 00000KT 9999 // NSC 05/02 Q1021
  • 280600Z AUTO 00000KT 9999 // NSC 03/01 Q1021
  • 280530Z AUTO 00000KT 9999 // NSC 01/00 Q1020

TAF TAF LFBA
Valide du 28 à 06h jusqu'au 28 à 15h UTC


280500Z 2806/2815 30005KT CAVOK
Pas de NOTAMs connus pour ce terrain.



MET'MAP, la Météo Aéronautique d'un coup d'oeil ! - Copyright ORBIFLY Décembre 2007 - Disclaimer

ORBIFLY MET'MAP TEAM :

Programmation & Développement : Alexandra Zaïnal
Conception & Développement : Baudouin d'Aumeries
Co-Programmation & Développement : Marc-Olivier Méhu
Soutien technique & logistique : Manuel Goepfert

Contact : metmap@orbifly.com




SOURCES & CREDITS :

   NOAA